createdAt,value
2018-05-05T00:00:18.233Z,9.88
2018-05-05T00:05:19.800Z,11.38
2018-05-05T00:07:47.520Z,10.68
2018-05-05T00:10:15.811Z,11.15
2018-05-05T00:12:46.067Z,11.73
2018-05-05T00:15:13.629Z,12.65
2018-05-05T00:17:43.130Z,11.23
2018-05-05T00:20:10.635Z,14.63
2018-05-05T00:22:40.708Z,12.10
2018-05-05T00:25:14.388Z,13.02
2018-05-05T00:27:42.406Z,13.95
2018-05-05T00:30:10.265Z,11.98
2018-05-05T00:32:37.787Z,12.00
2018-05-05T00:35:06.289Z,13.50
2018-05-05T00:37:33.831Z,10.75
2018-05-05T00:40:02.845Z,11.68
2018-05-05T00:42:34.371Z,17.52
2018-05-05T00:45:04.559Z,12.82
2018-05-05T00:47:35.478Z,11.00
2018-05-05T00:50:03.502Z,12.55
2018-05-05T00:52:32.282Z,14.05
2018-05-05T00:54:59.878Z,10.35
2018-05-05T00:57:27.990Z,15.00
2018-05-05T00:59:56.554Z,16.02
2018-05-05T01:02:26.444Z,12.15
2018-05-05T01:04:54.925Z,14.52
2018-05-05T01:07:22.451Z,12.13
2018-05-05T01:09:50.868Z,19.15
2018-05-05T01:12:19.098Z,14.50
2018-05-05T01:14:47.770Z,14.80
2018-05-05T01:17:16.097Z,15.68
2018-05-05T01:19:46.424Z,16.62
2018-05-05T01:22:14.201Z,16.87
2018-05-05T01:24:42.105Z,14.25
2018-05-05T01:27:11.461Z,12.95
2018-05-05T01:29:40.036Z,17.45
2018-05-05T01:32:08.524Z,13.38
2018-05-05T01:34:39.423Z,11.98
2018-05-05T01:37:07.982Z,17.98
2018-05-05T01:39:36.314Z,12.23
2018-05-05T01:42:06.289Z,14.65
2018-05-05T01:44:34.924Z,15.38
2018-05-05T01:47:02.547Z,12.35
2018-05-05T01:49:31.376Z,13.00
2018-05-05T01:51:59.611Z,12.37
2018-05-05T01:54:29.683Z,13.68
2018-05-05T01:56:57.233Z,14.32
2018-05-05T01:59:26.208Z,11.05
2018-05-05T02:01:54.627Z,11.35
2018-05-05T02:04:22.735Z,13.80
2018-05-05T02:06:51.015Z,14.43
2018-05-05T02:09:20.337Z,10.90
2018-05-05T02:11:49.085Z,13.77
2018-05-05T02:14:16.957Z,12.73
2018-05-05T02:16:46.293Z,12.27
2018-05-05T02:19:15.047Z,13.30
2018-05-05T02:21:43.151Z,11.07
2018-05-05T02:24:12.770Z,13.52
2018-05-05T02:26:43.601Z,12.85
2018-05-05T02:29:11.122Z,12.75
2018-05-05T02:31:40.524Z,14.73
2018-05-05T02:34:08.607Z,11.85
2018-05-05T02:36:37.993Z,18.42
2018-05-05T02:39:06.535Z,13.18
2018-05-05T02:41:35.891Z,11.77
2018-05-05T02:44:06.198Z,16.25
2018-05-05T02:46:35.405Z,12.15
2018-05-05T02:49:05.351Z,11.18
2018-05-05T02:51:35.163Z,16.10
2018-05-05T02:54:04.848Z,15.38
2018-05-05T02:56:35.034Z,20.30
2018-05-05T03:01:38.614Z,18.48
2018-05-05T03:04:07.976Z,13.35
2018-05-05T03:06:35.529Z,17.00
2018-05-05T03:09:04.463Z,16.85
2018-05-05T03:11:33.276Z,14.75
2018-05-05T03:14:01.504Z,14.00
2018-05-05T03:16:29.325Z,13.00
2018-05-05T03:18:59.409Z,16.00
2018-05-05T03:21:28.080Z,13.13
2018-05-05T03:23:56.532Z,16.33
2018-05-05T03:26:24.511Z,15.63
2018-05-05T03:28:52.524Z,13.90
2018-05-05T03:31:20.401Z,18.65
2018-05-05T03:33:47.906Z,17.92
2018-05-05T03:36:25.085Z,14.18
2018-05-05T03:41:26.376Z,14.15
2018-05-05T03:43:56.220Z,12.80
2018-05-05T03:46:24.247Z,11.82
2018-05-05T03:48:52.368Z,13.23
2018-05-05T03:51:20.888Z,16.50
2018-05-05T03:53:48.412Z,15.05
2018-05-05T03:56:16.865Z,16.37
2018-05-05T03:58:45.313Z,13.88
2018-05-05T04:01:25.675Z,15.45
2018-05-05T04:03:58.075Z,15.75
2018-05-05T04:06:28.455Z,17.35
2018-05-05T04:08:57.599Z,13.73
2018-05-05T04:11:26.080Z,14.70
2018-05-05T04:13:54.403Z,18.02
2018-05-05T04:16:24.133Z,13.48
2018-05-05T04:18:52.636Z,19.92
2018-05-05T04:21:20.220Z,18.35
2018-05-05T04:23:49.323Z,17.35
2018-05-05T04:26:17.130Z,16.10
2018-05-05T04:28:45.663Z,21.20
2018-05-05T04:31:14.647Z,17.15
2018-05-05T04:33:43.341Z,16.05
2018-05-05T04:36:12.781Z,17.35
2018-05-05T04:38:40.309Z,17.77
2018-05-05T04:41:08.348Z,19.05
2018-05-05T04:43:35.934Z,22.17
2018-05-05T04:46:04.516Z,17.55
2018-05-05T04:48:32.047Z,19.37
2018-05-05T04:50:59.636Z,18.87
2018-05-05T04:53:28.069Z,14.55
2018-05-05T04:55:55.653Z,13.90
2018-05-05T04:58:23.966Z,18.30
2018-05-05T05:00:51.555Z,15.38
2018-05-05T05:03:19.269Z,15.63
2018-05-05T05:05:47.556Z,16.45
2018-05-05T05:08:15.828Z,21.95
2018-05-05T05:10:44.094Z,18.70
2018-05-05T05:13:12.382Z,15.77
2018-05-05T05:15:40.682Z,16.92
2018-05-05T05:18:08.187Z,14.98
2018-05-05T05:20:35.691Z,19.27
2018-05-05T05:23:03.370Z,14.63
2018-05-05T05:25:30.971Z,19.00
2018-05-05T05:27:58.485Z,17.62
2018-05-05T05:30:26.011Z,16.52
2018-05-05T06:54:51.462Z,16.73
2018-05-05T06:57:20.286Z,16.62
2018-05-05T07:02:42.609Z,14.68
2018-05-05T07:05:10.266Z,16.45
2018-05-05T07:07:45.543Z,18.55
2018-05-05T07:10:13.247Z,14.65
2018-05-05T07:12:40.861Z,14.05
2018-05-05T07:15:09.746Z,18.60
2018-05-05T07:17:37.315Z,15.15
2018-05-05T07:20:04.839Z,19.40
2018-05-05T07:22:34.016Z,17.27
2018-05-05T07:25:02.665Z,14.90
2018-05-05T07:27:30.303Z,14.02
2018-05-05T07:29:58.771Z,16.05
2018-05-05T07:32:26.393Z,15.40
2018-05-05T07:34:53.971Z,15.70
2018-05-05T07:37:21.547Z,15.05
2018-05-05T07:39:49.103Z,12.57
2018-05-05T07:42:16.623Z,17.62
2018-05-05T07:44:44.921Z,14.70
2018-05-05T07:47:12.738Z,12.13
2018-05-05T07:49:40.363Z,12.88
2018-05-05T07:52:07.967Z,19.93
2018-05-05T07:54:37.483Z,14.23
2018-05-05T07:57:05.164Z,13.50
2018-05-05T07:59:32.903Z,20.63
2018-05-05T08:02:00.428Z,15.80
2018-05-05T08:04:32.872Z,16.03
2018-05-05T08:07:00.431Z,11.20
2018-05-05T08:09:28.152Z,12.20
2018-05-05T08:11:56.414Z,10.83
2018-05-05T08:14:25.309Z,14.20
2018-05-05T08:16:53.327Z,14.23
2018-05-05T08:19:21.558Z,9.80
2018-05-05T08:21:49.839Z,11.80
2018-05-05T08:24:17.406Z,8.30
2018-05-05T08:26:47.004Z,11.73
2018-05-05T08:29:17.932Z,9.43
2018-05-05T08:31:45.715Z,7.90
2018-05-05T08:34:13.214Z,10.20
2018-05-05T08:36:40.750Z,9.97
2018-05-05T08:39:08.321Z,10.93
2018-05-05T08:41:37.511Z,7.90
2018-05-05T08:44:06.208Z,7.43
2018-05-05T08:46:33.939Z,7.00
2018-05-05T08:49:01.479Z,9.90
2018-05-05T08:51:30.784Z,8.37
2018-05-05T08:53:59.111Z,7.80
2018-05-05T08:56:26.619Z,8.60
2018-05-05T08:58:56.209Z,8.43
2018-05-05T09:01:23.779Z,10.83
2018-05-05T09:03:52.070Z,7.90
2018-05-05T09:06:21.114Z,9.23
2018-05-05T09:08:49.697Z,8.73
2018-05-05T09:11:17.207Z,7.13
2018-05-05T09:13:45.083Z,8.50
2018-05-05T09:16:13.980Z,13.10
2018-05-05T09:18:41.890Z,15.27
2018-05-05T09:21:09.442Z,9.57
2018-05-05T09:23:37.011Z,8.80
2018-05-05T09:26:04.903Z,11.07
2018-05-05T09:28:32.546Z,7.37
2018-05-05T09:31:00.511Z,10.60
2018-05-05T09:33:28.409Z,10.73
2018-05-05T09:35:56.911Z,7.00
2018-05-05T09:38:24.472Z,7.60
2018-05-05T09:40:52.395Z,5.63
2018-05-05T09:43:20.063Z,10.30
2018-05-05T09:45:47.606Z,6.00
2018-05-05T09:48:16.375Z,8.23
2018-05-05T09:50:46.360Z,5.47
2018-05-05T09:53:15.860Z,7.70
2018-05-05T09:55:50.554Z,18.90
2018-05-05T09:58:24.696Z,6.77
2018-05-05T10:00:53.375Z,7.77
2018-05-05T10:03:22.071Z,8.23
2018-05-05T10:05:51.239Z,7.70
2018-05-05T10:08:20.073Z,6.70
2018-05-05T10:10:54.708Z,7.40
2018-05-05T10:13:34.765Z,8.27
2018-05-05T10:16:04.616Z,7.13
2018-05-05T10:18:34.247Z,8.20
2018-05-05T10:21:02.707Z,7.43
2018-05-05T10:23:34.279Z,7.93
2018-05-05T10:26:06.672Z,9.07
2018-05-05T10:28:36.373Z,7.57
2018-05-05T10:31:04.011Z,8.33
2018-05-05T10:33:31.560Z,11.13
2018-05-05T10:35:59.458Z,13.73
2018-05-05T10:38:30.090Z,8.17
2018-05-05T10:40:58.471Z,11.10
2018-05-05T10:43:26.596Z,8.10
2018-05-05T10:45:54.397Z,10.17
2018-05-05T10:48:22.382Z,8.83
2018-05-05T10:50:51.944Z,10.67
2018-05-05T10:53:20.364Z,8.30
2018-05-05T10:55:49.605Z,9.20
2018-05-05T10:58:17.170Z,8.47
2018-05-05T11:00:45.391Z,8.20
2018-05-05T11:03:17.365Z,9.87
2018-05-05T11:05:47.108Z,8.37
2018-05-05T11:08:14.739Z,8.93
2018-05-05T11:10:43.079Z,11.63
2018-05-05T11:13:11.380Z,7.60
2018-05-05T11:15:39.486Z,7.20
2018-05-05T11:18:08.409Z,9.47
2018-05-05T11:20:36.015Z,8.70
2018-05-05T11:23:04.756Z,7.30
2018-05-05T11:25:32.344Z,8.53
2018-05-05T11:28:00.519Z,8.03
2018-05-05T11:30:29.021Z,8.53
2018-05-05T11:32:58.211Z,7.73
2018-05-05T11:35:29.001Z,8.80
2018-05-05T11:37:56.807Z,7.40
2018-05-05T11:40:25.229Z,7.83
2018-05-05T11:42:52.999Z,8.63
2018-05-05T11:45:20.685Z,9.20
2018-05-05T11:47:48.639Z,8.97
2018-05-05T11:50:16.509Z,9.20
2018-05-05T11:52:44.912Z,8.93
2018-05-05T11:55:12.708Z,9.90
2018-05-05T11:57:41.293Z,9.53
2018-05-05T12:00:09.371Z,8.23
2018-05-05T12:02:39.637Z,11.40
2018-05-05T12:05:07.465Z,7.90
2018-05-05T12:07:35.076Z,10.23
2018-05-05T12:10:04.233Z,7.53
2018-05-05T12:12:34.258Z,8.27
2018-05-05T12:15:01.997Z,9.27
2018-05-05T12:17:31.667Z,8.70
2018-05-05T12:19:59.281Z,8.23
2018-05-05T12:22:26.964Z,7.30
2018-05-05T12:24:54.476Z,8.40
2018-05-05T12:27:22.149Z,6.77
2018-05-05T12:29:49.742Z,9.53
2018-05-05T12:32:17.280Z,9.83
2018-05-05T12:34:44.940Z,8.83
2018-05-05T12:37:12.623Z,8.17
2018-05-05T12:39:40.359Z,9.50
2018-05-05T12:42:08.151Z,7.20
2018-05-05T12:44:35.855Z,8.60
2018-05-05T12:47:03.806Z,8.17
2018-05-05T12:49:31.421Z,7.53
2018-05-05T12:51:58.980Z,8.23
2018-05-05T12:54:26.507Z,7.03
2018-05-05T12:56:53.999Z,7.97
2018-05-05T12:59:22.501Z,8.30
2018-05-05T13:01:50.176Z,11.27
2018-05-05T13:06:52.642Z,9.97
2018-05-05T13:09:21.087Z,10.40
2018-05-05T13:11:48.638Z,7.80
2018-05-05T13:14:16.211Z,12.77
2018-05-05T13:16:43.927Z,7.60
2018-05-05T13:19:11.700Z,8.87
2018-05-05T13:21:39.359Z,7.73
2018-05-05T13:24:06.907Z,6.63
2018-05-05T13:26:34.548Z,11.97
2018-05-05T13:29:02.083Z,6.77
2018-05-05T13:31:30.620Z,6.90
2018-05-05T13:33:58.185Z,7.93
2018-05-05T13:36:26.736Z,10.33
2018-05-05T13:38:54.388Z,7.23
2018-05-05T13:41:22.052Z,5.93
2018-05-05T13:43:49.681Z,6.57
2018-05-05T13:46:18.855Z,7.10
2018-05-05T13:48:46.506Z,9.60
2018-05-05T13:51:14.042Z,10.03
2018-05-05T13:53:42.443Z,11.50
2018-05-05T13:56:10.002Z,8.40
2018-05-05T13:58:37.685Z,19.30
2018-05-05T14:01:05.285Z,7.57
2018-05-05T14:03:32.845Z,7.90
2018-05-05T14:06:00.464Z,7.37
2018-05-05T14:08:28.089Z,7.63
2018-05-05T14:10:55.718Z,9.10
2018-05-05T14:13:23.287Z,8.17
2018-05-05T14:15:51.684Z,10.90
2018-05-05T14:18:19.248Z,7.13
2018-05-05T14:20:46.786Z,9.93
2018-05-05T14:23:15.069Z,8.30
2018-05-05T14:25:42.595Z,7.40
2018-05-05T14:28:10.200Z,7.00
2018-05-05T14:30:38.583Z,8.77
2018-05-05T14:33:06.180Z,8.17
2018-05-05T14:35:33.908Z,16.07
2018-05-05T14:38:01.588Z,9.80
2018-05-05T14:40:29.147Z,7.70
2018-05-05T14:42:56.778Z,7.63
2018-05-05T14:45:24.405Z,8.60
2018-05-05T14:47:53.053Z,8.20
2018-05-05T14:50:20.679Z,7.27
2018-05-05T14:52:49.438Z,7.27
2018-05-05T14:55:17.176Z,8.57
2018-05-05T14:57:44.860Z,14.33
2018-05-05T15:00:12.465Z,10.37
2018-05-05T15:02:40.075Z,10.47
2018-05-05T15:05:07.585Z,7.13
2018-05-05T15:07:36.090Z,7.00
2018-05-05T15:10:03.583Z,7.83
2018-05-05T15:12:32.959Z,15.13
2018-05-05T15:15:04.965Z,15.63
2018-05-05T15:17:36.473Z,10.07
2018-05-05T15:20:04.232Z,7.37
2018-05-05T15:22:31.936Z,8.50
2018-05-05T15:24:59.531Z,10.93
2018-05-05T15:27:27.421Z,11.20
2018-05-05T15:29:56.192Z,9.03
2018-05-05T15:32:24.135Z,7.73
2018-05-05T15:34:52.812Z,11.47
2018-05-05T15:37:23.064Z,7.87
2018-05-05T15:39:51.010Z,8.50
2018-05-05T15:42:21.111Z,12.60
2018-05-05T15:44:53.991Z,13.60
2018-05-05T15:47:24.314Z,8.30
2018-05-05T15:49:51.997Z,8.07
2018-05-05T15:52:19.802Z,12.27
2018-05-05T15:54:47.605Z,7.33
2018-05-05T15:57:17.155Z,10.57
2018-05-05T15:59:46.066Z,8.90
2018-05-05T16:02:14.817Z,8.23
2018-05-05T16:04:42.415Z,8.53
2018-05-05T16:07:10.102Z,10.37
2018-05-05T16:09:39.942Z,11.03
2018-05-05T16:12:07.531Z,8.57
2018-05-05T16:14:35.919Z,12.90
2018-05-05T16:17:03.694Z,9.77
2018-05-05T16:19:31.867Z,10.00
2018-05-05T16:21:59.755Z,6.87
2018-05-05T16:24:27.505Z,12.13
2018-05-05T16:26:55.184Z,8.33
2018-05-05T16:29:23.099Z,12.53
2018-05-05T16:31:51.710Z,14.07
2018-05-05T16:34:20.336Z,7.67
2018-05-05T16:36:47.945Z,12.73
2018-05-05T16:39:16.303Z,9.87
2018-05-05T16:41:47.064Z,7.87
2018-05-05T16:44:15.396Z,11.17
2018-05-05T16:46:43.043Z,7.87
2018-05-05T16:49:11.216Z,10.20
2018-05-05T16:51:39.052Z,10.83
2018-05-05T16:54:06.651Z,11.17
2018-05-05T16:56:34.211Z,9.20
2018-05-05T16:59:01.936Z,10.53
2018-05-05T17:01:29.801Z,9.13
2018-05-05T17:03:57.491Z,9.13
2018-05-05T17:06:25.188Z,10.03
2018-05-05T17:08:52.993Z,12.27
2018-05-05T17:11:21.421Z,10.37
2018-05-05T17:13:52.830Z,9.47
2018-05-05T17:16:21.508Z,15.27
2018-05-05T17:18:49.591Z,13.23
2018-05-05T17:21:17.441Z,12.40
2018-05-05T17:23:46.300Z,14.10
2018-05-05T17:26:15.651Z,9.07
2018-05-05T17:28:46.452Z,9.93
2018-05-05T17:31:14.342Z,10.00
2018-05-05T17:33:42.223Z,9.53
2018-05-05T17:36:10.033Z,9.30
2018-05-05T17:38:38.742Z,9.60
2018-05-05T17:41:08.365Z,13.83
2018-05-05T17:43:36.980Z,10.83
2018-05-05T17:46:04.493Z,14.33
2018-05-05T17:48:34.445Z,11.73
2018-05-05T17:51:06.875Z,11.10
2018-05-05T17:53:36.633Z,10.17
2018-05-05T17:56:04.709Z,8.67
2018-05-05T17:58:32.540Z,12.23
2018-05-05T18:01:02.494Z,13.10
2018-05-05T18:03:34.220Z,12.73
2018-05-05T18:06:02.152Z,10.50
2018-05-05T18:08:30.034Z,11.33
2018-05-05T18:10:58.399Z,15.57
2018-05-05T18:13:27.832Z,6.43
2018-05-05T18:15:55.603Z,8.57
2018-05-05T18:21:18.882Z,8.10
2018-05-05T18:23:47.061Z,10.70
2018-05-05T18:26:14.905Z,8.27
2018-05-05T18:28:43.435Z,11.63
2018-05-05T18:31:12.745Z,15.03
2018-05-05T18:33:40.441Z,13.50
2018-05-05T18:36:08.772Z,8.83
2018-05-05T18:38:36.714Z,9.90
2018-05-05T18:41:04.444Z,10.70
2018-05-05T18:43:32.207Z,15.17
2018-05-05T18:46:00.474Z,9.40
2018-05-05T18:48:29.038Z,9.87
2018-05-05T18:50:58.513Z,13.47
2018-05-05T18:53:26.616Z,13.30
2018-05-05T18:55:54.287Z,7.47
2018-05-05T18:58:22.309Z,8.37
2018-05-05T19:00:51.551Z,10.17
2018-05-05T19:03:19.266Z,16.70
2018-05-05T19:05:47.046Z,13.63
2018-05-05T19:08:15.514Z,10.57
2018-05-05T19:10:43.188Z,13.57
2018-05-05T19:13:11.052Z,6.67
2018-05-05T19:15:38.846Z,11.73
2018-05-05T19:18:07.383Z,14.23
2018-05-05T19:20:35.874Z,9.57
2018-05-05T19:25:37.694Z,10.60
2018-05-05T19:28:06.128Z,10.17
2018-05-05T19:30:33.698Z,9.70
2018-05-05T19:33:02.036Z,9.90
2018-05-05T19:35:29.734Z,12.67
2018-05-05T19:37:57.465Z,10.73
2018-05-05T19:40:25.158Z,10.43
2018-05-05T19:42:52.816Z,10.33
2018-05-05T19:45:21.272Z,13.70
2018-05-05T19:47:49.881Z,10.37
2018-05-05T19:50:18.370Z,10.70
2018-05-05T19:52:46.245Z,15.40
2018-05-05T19:55:13.893Z,11.40
2018-05-05T19:57:41.672Z,10.77
2018-05-05T20:00:10.017Z,14.80
2018-05-05T20:02:37.779Z,9.30
2018-05-05T20:05:05.581Z,8.43
2018-05-05T20:07:33.345Z,12.40
2018-05-05T20:10:01.120Z,9.17
2018-05-05T20:12:28.873Z,7.03
2018-05-05T20:14:56.732Z,14.20
2018-05-05T20:17:25.332Z,13.47
2018-05-05T20:19:53.077Z,12.43
2018-05-05T20:22:20.824Z,10.33
2018-05-05T20:24:48.484Z,9.90
2018-05-05T20:27:16.367Z,8.37
2018-05-05T20:29:44.046Z,9.50
2018-05-05T20:32:11.775Z,7.73
2018-05-05T20:34:39.510Z,8.63
2018-05-05T20:37:07.110Z,12.07
2018-05-05T20:39:34.800Z,10.33
2018-05-05T20:42:02.411Z,11.23
2018-05-05T20:44:30.072Z,10.23
2018-05-05T20:46:57.681Z,8.40
2018-05-05T20:49:25.300Z,9.63
2018-05-05T20:51:53.723Z,8.37
2018-05-05T20:54:21.566Z,8.17
2018-05-05T20:56:49.383Z,8.30
2018-05-05T20:59:17.087Z,9.77
2018-05-05T21:01:45.576Z,11.43
2018-05-05T21:04:13.210Z,9.23
2018-05-05T21:06:40.895Z,9.20
2018-05-05T21:09:08.530Z,8.97
2018-05-05T21:11:36.208Z,8.50
2018-05-05T21:14:03.887Z,10.03
2018-05-05T21:16:31.625Z,7.57
2018-05-05T21:18:59.324Z,8.20
2018-05-05T21:21:27.138Z,8.40
2018-05-05T21:23:54.815Z,10.33
2018-05-05T21:26:22.484Z,9.13
2018-05-05T21:28:51.010Z,11.63
2018-05-05T21:31:19.474Z,11.10
2018-05-05T21:33:47.146Z,12.43
2018-05-05T21:36:14.784Z,10.70
2018-05-05T21:38:42.434Z,8.67
2018-05-05T21:41:10.002Z,7.77
2018-05-05T21:43:38.456Z,10.40
2018-05-05T21:46:06.083Z,11.10
2018-05-05T21:48:34.677Z,9.37
2018-05-05T21:51:02.330Z,10.60
2018-05-05T21:53:30.041Z,8.60
2018-05-05T21:55:57.784Z,8.10
2018-05-05T21:58:25.417Z,13.03
2018-05-05T22:00:53.093Z,8.93
2018-05-05T22:03:20.739Z,13.10
2018-05-05T22:05:48.340Z,8.30
2018-05-05T22:08:16.072Z,9.90
2018-05-05T22:10:43.613Z,8.60
2018-05-05T22:13:11.252Z,8.43
2018-05-05T22:15:38.835Z,12.97
2018-05-05T22:18:06.489Z,8.80
2018-05-05T22:20:34.769Z,8.93
2018-05-05T22:23:03.162Z,10.87
2018-05-05T22:25:30.671Z,12.17
2018-05-05T22:27:59.028Z,8.43
2018-05-05T22:30:26.749Z,10.77
2018-05-05T22:32:55.135Z,10.10
2018-05-05T22:35:22.728Z,10.13
2018-05-05T22:37:50.327Z,9.13
2018-05-05T22:40:17.924Z,10.90
2018-05-05T22:42:45.555Z,10.57
2018-05-05T22:45:13.277Z,9.13
2018-05-05T22:47:40.932Z,8.57
2018-05-05T22:50:08.535Z,13.77
2018-05-05T22:52:36.296Z,11.13
2018-05-05T22:55:03.921Z,8.87
2018-05-05T22:57:31.511Z,10.00
2018-05-05T22:59:59.172Z,15.33
2018-05-05T23:02:26.825Z,13.53
2018-05-05T23:04:54.384Z,14.13
2018-05-05T23:07:22.001Z,11.00
2018-05-05T23:09:49.750Z,10.50
2018-05-05T23:12:17.385Z,12.30
2018-05-05T23:14:45.049Z,11.70
2018-05-05T23:17:12.771Z,9.40
2018-05-05T23:19:40.275Z,7.23
2018-05-05T23:22:07.935Z,8.40
2018-05-05T23:24:36.387Z,8.13
2018-05-05T23:27:04.045Z,10.10
2018-05-05T23:29:31.576Z,12.03
2018-05-05T23:31:59.102Z,11.43
2018-05-05T23:34:26.713Z,9.40
2018-05-05T23:36:54.266Z,11.73
2018-05-05T23:39:21.977Z,13.50
2018-05-05T23:41:49.495Z,9.37
2018-05-05T23:44:16.991Z,8.70
2018-05-05T23:46:44.741Z,8.70
2018-05-05T23:49:12.468Z,11.97
2018-05-05T23:51:39.966Z,10.10
2018-05-05T23:54:07.631Z,11.52
2018-05-05T23:56:35.976Z,8.37
2018-05-05T23:59:03.511Z,12.68
